sensor_id;sensor_type;location;lat;lon;timestamp;temperature;humidity
42261;DHT22;27926;48.062;7.474;2023-04-25T00:00:11;9.60;99.90
42261;DHT22;27926;48.062;7.474;2023-04-25T00:02:36;9.60;99.90
42261;DHT22;27926;48.062;7.474;2023-04-25T00:05:02;9.60;99.90
42261;DHT22;27926;48.062;7.474;2023-04-25T00:07:27;10.00;99.90
42261;DHT22;27926;48.062;7.474;2023-04-25T00:09:55;9.50;99.90
42261;DHT22;27926;48.062;7.474;2023-04-25T00:12:20;9.50;99.90
42261;DHT22;27926;48.062;7.474;2023-04-25T00:14:45;9.70;99.90
42261;DHT22;27926;48.062;7.474;2023-04-25T00:17:11;9.50;99.90
42261;DHT22;27926;48.062;7.474;2023-04-25T00:19:35;9.50;99.90
42261;DHT22;27926;48.062;7.474;2023-04-25T00:22:02;9.50;99.90
42261;DHT22;27926;48.062;7.474;2023-04-25T00:24:26;9.40;99.90
42261;DHT22;27926;48.062;7.474;2023-04-25T00:26:51;9.30;99.90
42261;DHT22;27926;48.062;7.474;2023-04-25T00:29:15;9.20;99.90
42261;DHT22;27926;48.062;7.474;2023-04-25T00:31:40;9.40;99.90
42261;DHT22;27926;48.062;7.474;2023-04-25T00:34:06;9.10;99.90
42261;DHT22;27926;48.062;7.474;2023-04-25T00:36:31;9.10;99.90
42261;DHT22;27926;48.062;7.474;2023-04-25T00:38:56;9.00;99.90
42261;DHT22;27926;48.062;7.474;2023-04-25T00:41:20;8.90;99.90
42261;DHT22;27926;48.062;7.474;2023-04-25T00:43:46;9.00;99.90
42261;DHT22;27926;48.062;7.474;2023-04-25T00:46:11;8.90;99.90
42261;DHT22;27926;48.062;7.474;2023-04-25T00:48:36;8.80;99.90
42261;DHT22;27926;48.062;7.474;2023-04-25T00:51:01;9.00;99.90
42261;DHT22;27926;48.062;7.474;2023-04-25T00:53:27;8.90;99.90
42261;DHT22;27926;48.062;7.474;2023-04-25T00:55:52;8.80;99.90
42261;DHT22;27926;48.062;7.474;2023-04-25T00:58:18;8.80;99.90
42261;DHT22;27926;48.062;7.474;2023-04-25T01:00:44;9.00;99.90
42261;DHT22;27926;48.062;7.474;2023-04-25T01:03:09;9.30;99.90
42261;DHT22;27926;48.062;7.474;2023-04-25T01:05:34;8.90;99.90
42261;DHT22;27926;48.062;7.474;2023-04-25T01:07:59;8.90;99.90
42261;DHT22;27926;48.062;7.474;2023-04-25T01:10:24;9.00;99.90
42261;DHT22;27926;48.062;7.474;2023-04-25T01:12:48;9.00;99.90
42261;DHT22;27926;48.062;7.474;2023-04-25T01:15:13;9.00;99.90
42261;DHT22;27926;48.062;7.474;2023-04-25T01:17:38;9.00;99.90
42261;DHT22;27926;48.062;7.474;2023-04-25T01:20:04;9.00;99.90
42261;DHT22;27926;48.062;7.474;2023-04-25T01:22:29;9.00;99.90
42261;DHT22;27926;48.062;7.474;2023-04-25T01:24:54;9.00;99.90
42261;DHT22;27926;48.062;7.474;2023-04-25T01:27:19;9.00;99.90
42261;DHT22;27926;48.062;7.474;2023-04-25T01:29:45;8.90;99.90
42261;DHT22;27926;48.062;7.474;2023-04-25T01:32:10;8.90;99.90
42261;DHT22;27926;48.062;7.474;2023-04-25T01:34:35;8.80;99.90
42261;DHT22;27926;48.062;7.474;2023-04-25T01:37:00;8.70;99.90
42261;DHT22;27926;48.062;7.474;2023-04-25T01:39:26;9.00;99.90
42261;DHT22;27926;48.062;7.474;2023-04-25T01:41:50;8.40;99.90
42261;DHT22;27926;48.062;7.474;2023-04-25T01:44:15;8.30;99.90
42261;DHT22;27926;48.062;7.474;2023-04-25T01:46:41;8.20;99.90
42261;DHT22;27926;48.062;7.474;2023-04-25T01:49:06;8.40;99.90
42261;DHT22;27926;48.062;7.474;2023-04-25T01:51:31;8.40;99.90
42261;DHT22;27926;48.062;7.474;2023-04-25T01:53:57;7.80;99.90
42261;DHT22;27926;48.062;7.474;2023-04-25T01:56:21;7.80;99.90
42261;DHT22;27926;48.062;7.474;2023-04-25T01:58:46;7.80;99.90
42261;DHT22;27926;48.062;7.474;2023-04-25T02:01:10;7.70;99.90
42261;DHT22;27926;48.062;7.474;2023-04-25T02:03:36;7.80;99.90
42261;DHT22;27926;48.062;7.474;2023-04-25T02:06:00;8.00;99.90
42261;DHT22;27926;48.062;7.474;2023-04-25T02:08:25;7.90;99.90
42261;DHT22;27926;48.062;7.474;2023-04-25T02:10:51;8.00;99.90
42261;DHT22;27926;48.062;7.474;2023-04-25T02:13:15;8.10;99.90
42261;DHT22;27926;48.062;7.474;2023-04-25T02:15:40;8.10;99.90
42261;DHT22;27926;48.062;7.474;2023-04-25T02:18:05;8.20;99.90
42261;DHT22;27926;48.062;7.474;2023-04-25T02:20:30;8.20;99.90
42261;DHT22;27926;48.062;7.474;2023-04-25T02:22:55;8.40;99.90
42261;DHT22;27926;48.062;7.474;2023-04-25T02:25:20;8.30;99.90
42261;DHT22;27926;48.062;7.474;2023-04-25T02:27:45;8.40;99.90
42261;DHT22;27926;48.062;7.474;2023-04-25T02:30:10;8.70;99.90
42261;DHT22;27926;48.062;7.474;2023-04-25T02:32:35;8.40;99.90
42261;DHT22;27926;48.062;7.474;2023-04-25T02:35:03;8.60;99.90
42261;DHT22;27926;48.062;7.474;2023-04-25T02:37:28;8.30;99.90
42261;DHT22;27926;48.062;7.474;2023-04-25T02:39:52;8.30;99.90
42261;DHT22;27926;48.062;7.474;2023-04-25T02:42:17;8.30;99.90
42261;DHT22;27926;48.062;7.474;2023-04-25T02:44:42;8.40;99.90
42261;DHT22;27926;48.062;7.474;2023-04-25T02:47:06;8.40;99.90
42261;DHT22;27926;48.062;7.474;2023-04-25T02:49:31;8.50;99.90
42261;DHT22;27926;48.062;7.474;2023-04-25T02:51:55;8.40;99.90
42261;DHT22;27926;48.062;7.474;2023-04-25T02:54:20;8.40;99.90
42261;DHT22;27926;48.062;7.474;2023-04-25T02:56:45;8.60;99.90
42261;DHT22;27926;48.062;7.474;2023-04-25T02:59:09;9.40;99.90
42261;DHT22;27926;48.062;7.474;2023-04-25T03:01:34;8.50;99.90
42261;DHT22;27926;48.062;7.474;2023-04-25T03:03:58;8.40;99.90
42261;DHT22;27926;48.062;7.474;2023-04-25T03:06:23;8.30;99.90
42261;DHT22;27926;48.062;7.474;2023-04-25T03:08:47;8.40;99.90
42261;DHT22;27926;48.062;7.474;2023-04-25T03:11:12;8.30;99.90
42261;DHT22;27926;48.062;7.474;2023-04-25T03:13:37;8.20;99.90
42261;DHT22;27926;48.062;7.474;2023-04-25T03:16:01;8.20;99.90
42261;DHT22;27926;48.062;7.474;2023-04-25T03:18:26;8.40;99.90
42261;DHT22;27926;48.062;7.474;2023-04-25T03:20:51;8.20;99.90
42261;DHT22;27926;48.062;7.474;2023-04-25T03:23:15;8.10;99.90
42261;DHT22;27926;48.062;7.474;2023-04-25T03:25:40;8.20;99.90
42261;DHT22;27926;48.062;7.474;2023-04-25T03:28:04;8.00;99.90
42261;DHT22;27926;48.062;7.474;2023-04-25T03:30:29;8.00;99.90
42261;DHT22;27926;48.062;7.474;2023-04-25T03:32:54;8.00;99.90
42261;DHT22;27926;48.062;7.474;2023-04-25T03:35:18;7.80;99.90
42261;DHT22;27926;48.062;7.474;2023-04-25T03:37:43;7.80;99.90
42261;DHT22;27926;48.062;7.474;2023-04-25T03:40:10;7.80;99.90
42261;DHT22;27926;48.062;7.474;2023-04-25T03:42:35;7.60;99.90
42261;DHT22;27926;48.062;7.474;2023-04-25T03:45:00;7.80;99.90
42261;DHT22;27926;48.062;7.474;2023-04-25T03:47:24;8.40;99.90
42261;DHT22;27926;48.062;7.474;2023-04-25T03:49:49;7.50;99.90
42261;DHT22;27926;48.062;7.474;2023-04-25T03:52:16;7.50;99.90
42261;DHT22;27926;48.062;7.474;2023-04-25T03:54:40;7.60;99.90
42261;DHT22;27926;48.062;7.474;2023-04-25T03:57:05;7.40;99.90
42261;DHT22;27926;48.062;7.474;2023-04-25T03:59:29;7.40;99.90
42261;DHT22;27926;48.062;7.474;2023-04-25T04:01:54;7.80;99.90
42261;DHT22;27926;48.062;7.474;2023-04-25T04:04:19;7.50;99.90
42261;DHT22;27926;48.062;7.474;2023-04-25T04:06:44;7.50;99.90
42261;DHT22;27926;48.062;7.474;2023-04-25T04:09:08;7.60;99.90
42261;DHT22;27926;48.062;7.474;2023-04-25T04:11:35;8.20;99.90
42261;DHT22;27926;48.062;7.474;2023-04-25T04:14:01;7.50;99.90
42261;DHT22;27926;48.062;7.474;2023-04-25T04:16:25;7.50;99.90
42261;DHT22;27926;48.062;7.474;2023-04-25T04:18:50;7.50;99.90
42261;DHT22;27926;48.062;7.474;2023-04-25T04:21:14;8.40;99.90
42261;DHT22;27926;48.062;7.474;2023-04-25T04:23:39;7.60;99.90
42261;DHT22;27926;48.062;7.474;2023-04-25T04:26:04;8.80;99.90
42261;DHT22;27926;48.062;7.474;2023-04-25T04:28:29;7.70;99.90
42261;DHT22;27926;48.062;7.474;2023-04-25T04:30:54;8.10;99.90
42261;DHT22;27926;48.062;7.474;2023-04-25T04:33:19;8.10;99.90
42261;DHT22;27926;48.062;7.474;2023-04-25T04:35:45;8.00;99.90
42261;DHT22;27926;48.062;7.474;2023-04-25T04:38:11;8.10;99.90
42261;DHT22;27926;48.062;7.474;2023-04-25T04:40:36;7.70;99.90
42261;DHT22;27926;48.062;7.474;2023-04-25T04:43:00;7.90;99.90
42261;DHT22;27926;48.062;7.474;2023-04-25T04:45:25;8.30;99.90
42261;DHT22;27926;48.062;7.474;2023-04-25T04:47:51;7.80;99.90
42261;DHT22;27926;48.062;7.474;2023-04-25T04:50:16;8.40;99.90
42261;DHT22;27926;48.062;7.474;2023-04-25T04:52:41;7.90;99.90
42261;DHT22;27926;48.062;7.474;2023-04-25T04:55:06;7.90;99.90
42261;DHT22;27926;48.062;7.474;2023-04-25T04:57:32;7.90;99.90
42261;DHT22;27926;48.062;7.474;2023-04-25T04:59:57;7.90;99.90
42261;DHT22;27926;48.062;7.474;2023-04-25T05:02:21;8.10;99.90
42261;DHT22;27926;48.062;7.474;2023-04-25T05:04:46;8.30;99.90
42261;DHT22;27926;48.062;7.474;2023-04-25T05:07:11;8.10;99.90
42261;DHT22;27926;48.062;7.474;2023-04-25T05:09:35;8.00;99.90
42261;DHT22;27926;48.062;7.474;2023-04-25T05:12:00;7.90;99.90
42261;DHT22;27926;48.062;7.474;2023-04-25T05:14:25;7.80;99.90
42261;DHT22;27926;48.062;7.474;2023-04-25T05:16:50;8.10;99.90
42261;DHT22;27926;48.062;7.474;2023-04-25T05:19:15;7.90;99.90
42261;DHT22;27926;48.062;7.474;2023-04-25T05:21:39;8.10;99.90
42261;DHT22;27926;48.062;7.474;2023-04-25T05:24:04;8.20;99.90
42261;DHT22;27926;48.062;7.474;2023-04-25T05:26:29;7.80;99.90
42261;DHT22;27926;48.062;7.474;2023-04-25T05:28:55;7.80;99.90
42261;DHT22;27926;48.062;7.474;2023-04-25T05:31:19;7.80;99.90
42261;DHT22;27926;48.062;7.474;2023-04-25T05:33:44;7.80;99.90
42261;DHT22;27926;48.062;7.474;2023-04-25T05:36:09;8.20;99.90
42261;DHT22;27926;48.062;7.474;2023-04-25T05:38:33;8.10;99.90
42261;DHT22;27926;48.062;7.474;2023-04-25T05:40:58;8.20;99.90
42261;DHT22;27926;48.062;7.474;2023-04-25T05:43:22;7.90;99.90
42261;DHT22;27926;48.062;7.474;2023-04-25T05:45:47;7.80;99.90
42261;DHT22;27926;48.062;7.474;2023-04-25T05:48:12;7.90;99.90
42261;DHT22;27926;48.062;7.474;2023-04-25T05:50:36;8.30;99.90
42261;DHT22;27926;48.062;7.474;2023-04-25T05:53:01;8.10;99.90
42261;DHT22;27926;48.062;7.474;2023-04-25T05:55:26;7.90;99.90
42261;DHT22;27926;48.062;7.474;2023-04-25T05:57:51;7.90;99.90
42261;DHT22;27926;48.062;7.474;2023-04-25T06:00:16;7.90;99.90
42261;DHT22;27926;48.062;7.474;2023-04-25T06:02:40;7.90;99.90
42261;DHT22;27926;48.062;7.474;2023-04-25T06:05:05;7.90;99.90
42261;DHT22;27926;48.062;7.474;2023-04-25T06:07:30;8.00;99.90
42261;DHT22;27926;48.062;7.474;2023-04-25T06:09:55;8.10;99.90
42261;DHT22;27926;48.062;7.474;2023-04-25T06:12:19;8.10;99.90
42261;DHT22;27926;48.062;7.474;2023-04-25T06:14:44;8.20;99.90
42261;DHT22;27926;48.062;7.474;2023-04-25T06:17:09;8.30;99.90
42261;DHT22;27926;48.062;7.474;2023-04-25T06:19:34;8.30;99.90
42261;DHT22;27926;48.062;7.474;2023-04-25T06:21:59;8.30;99.90
42261;DHT22;27926;48.062;7.474;2023-04-25T06:24:24;8.70;99.90
42261;DHT22;27926;48.062;7.474;2023-04-25T06:26:49;8.50;99.90
42261;DHT22;27926;48.062;7.474;2023-04-25T06:29:14;8.60;99.90
42261;DHT22;27926;48.062;7.474;2023-04-25T06:31:38;8.70;99.90
42261;DHT22;27926;48.062;7.474;2023-04-25T06:34:03;8.80;99.90
42261;DHT22;27926;48.062;7.474;2023-04-25T06:36:28;8.90;99.90
42261;DHT22;27926;48.062;7.474;2023-04-25T06:38:52;9.00;99.90
42261;DHT22;27926;48.062;7.474;2023-04-25T06:41:17;9.00;99.90
42261;DHT22;27926;48.062;7.474;2023-04-25T06:43:42;9.00;99.90
42261;DHT22;27926;48.062;7.474;2023-04-25T06:46:06;9.00;99.90
42261;DHT22;27926;48.062;7.474;2023-04-25T06:48:31;9.00;99.90
42261;DHT22;27926;48.062;7.474;2023-04-25T06:50:55;9.10;99.90
42261;DHT22;27926;48.062;7.474;2023-04-25T06:53:20;9.20;99.90
42261;DHT22;27926;48.062;7.474;2023-04-25T06:55:45;9.40;99.90
42261;DHT22;27926;48.062;7.474;2023-04-25T06:58:10;9.30;99.90
42261;DHT22;27926;48.062;7.474;2023-04-25T07:00:34;9.30;99.90
42261;DHT22;27926;48.062;7.474;2023-04-25T07:02:59;9.30;99.90
42261;DHT22;27926;48.062;7.474;2023-04-25T07:05:24;9.70;99.90
42261;DHT22;27926;48.062;7.474;2023-04-25T07:07:48;9.30;99.90
42261;DHT22;27926;48.062;7.474;2023-04-25T07:10:13;9.10;99.90
42261;DHT22;27926;48.062;7.474;2023-04-25T07:12:38;9.10;99.90
42261;DHT22;27926;48.062;7.474;2023-04-25T07:15:03;9.20;99.90
42261;DHT22;27926;48.062;7.474;2023-04-25T07:17:30;9.10;99.90
42261;DHT22;27926;48.062;7.474;2023-04-25T07:19:54;9.10;99.90
42261;DHT22;27926;48.062;7.474;2023-04-25T07:22:19;9.40;99.90
42261;DHT22;27926;48.062;7.474;2023-04-25T07:24:44;9.20;99.90
42261;DHT22;27926;48.062;7.474;2023-04-25T07:27:12;9.20;99.90
42261;DHT22;27926;48.062;7.474;2023-04-25T07:29:37;9.20;99.90
42261;DHT22;27926;48.062;7.474;2023-04-25T07:32:02;9.20;99.90
42261;DHT22;27926;48.062;7.474;2023-04-25T07:34:27;9.20;99.90
42261;DHT22;27926;48.062;7.474;2023-04-25T07:36:51;9.20;99.90
42261;DHT22;27926;48.062;7.474;2023-04-25T07:39:16;9.20;99.90
42261;DHT22;27926;48.062;7.474;2023-04-25T07:41:41;9.40;99.90
42261;DHT22;27926;48.062;7.474;2023-04-25T07:44:06;9.80;99.90
42261;DHT22;27926;48.062;7.474;2023-04-25T07:46:30;9.80;99.90
42261;DHT22;27926;48.062;7.474;2023-04-25T07:48:55;9.90;99.90
42261;DHT22;27926;48.062;7.474;2023-04-25T07:51:20;10.00;99.90
42261;DHT22;27926;48.062;7.474;2023-04-25T07:53:46;10.30;99.90
42261;DHT22;27926;48.062;7.474;2023-04-25T07:56:11;10.10;99.90
42261;DHT22;27926;48.062;7.474;2023-04-25T07:58:35;10.20;99.90
42261;DHT22;27926;48.062;7.474;2023-04-25T08:01:00;10.20;99.90
42261;DHT22;27926;48.062;7.474;2023-04-25T08:03:24;10.30;99.90
42261;DHT22;27926;48.062;7.474;2023-04-25T08:05:49;10.10;99.90
42261;DHT22;27926;48.062;7.474;2023-04-25T08:08:14;10.10;99.90
42261;DHT22;27926;48.062;7.474;2023-04-25T08:10:38;10.00;99.90
42261;DHT22;27926;48.062;7.474;2023-04-25T08:13:03;10.10;99.90
42261;DHT22;27926;48.062;7.474;2023-04-25T08:15:28;10.30;99.90
42261;DHT22;27926;48.062;7.474;2023-04-25T08:17:52;10.30;99.90
42261;DHT22;27926;48.062;7.474;2023-04-25T08:20:17;10.40;99.90
42261;DHT22;27926;48.062;7.474;2023-04-25T08:22:42;10.60;99.90
42261;DHT22;27926;48.062;7.474;2023-04-25T08:25:07;10.70;99.90
42261;DHT22;27926;48.062;7.474;2023-04-25T08:27:32;10.80;99.90
42261;DHT22;27926;48.062;7.474;2023-04-25T08:29:56;11.10;99.90
42261;DHT22;27926;48.062;7.474;2023-04-25T08:32:22;11.40;99.90
42261;DHT22;27926;48.062;7.474;2023-04-25T08:34:47;11.50;99.90
42261;DHT22;27926;48.062;7.474;2023-04-25T08:37:11;11.50;99.90
42261;DHT22;27926;48.062;7.474;2023-04-25T08:39:37;11.60;99.90
42261;DHT22;27926;48.062;7.474;2023-04-25T08:42:06;11.50;99.90
42261;DHT22;27926;48.062;7.474;2023-04-25T08:44:33;11.40;99.90
42261;DHT22;27926;48.062;7.474;2023-04-25T08:46:58;11.40;99.90
42261;DHT22;27926;48.062;7.474;2023-04-25T08:49:23;11.40;99.90
42261;DHT22;27926;48.062;7.474;2023-04-25T08:51:49;11.40;99.90
42261;DHT22;27926;48.062;7.474;2023-04-25T08:54:15;11.30;99.90
42261;DHT22;27926;48.062;7.474;2023-04-25T08:56:47;11.30;99.90
42261;DHT22;27926;48.062;7.474;2023-04-25T08:59:12;11.40;99.90
42261;DHT22;27926;48.062;7.474;2023-04-25T09:01:37;11.30;99.90
42261;DHT22;27926;48.062;7.474;2023-04-25T09:04:02;11.30;99.90
42261;DHT22;27926;48.062;7.474;2023-04-25T09:06:29;11.40;99.90
42261;DHT22;27926;48.062;7.474;2023-04-25T09:08:54;11.80;99.90
42261;DHT22;27926;48.062;7.474;2023-04-25T09:11:19;11.80;99.90
42261;DHT22;27926;48.062;7.474;2023-04-25T09:13:44;12.00;99.90
42261;DHT22;27926;48.062;7.474;2023-04-25T09:16:09;12.40;99.90
42261;DHT22;27926;48.062;7.474;2023-04-25T09:18:34;12.80;99.90
42261;DHT22;27926;48.062;7.474;2023-04-25T09:21:10;13.00;99.90
42261;DHT22;27926;48.062;7.474;2023-04-25T09:23:48;13.10;99.90
42261;DHT22;27926;48.062;7.474;2023-04-25T09:26:20;13.20;99.90
42261;DHT22;27926;48.062;7.474;2023-04-25T09:28:45;13.40;99.90
42261;DHT22;27926;48.062;7.474;2023-04-25T09:31:12;13.50;99.90
42261;DHT22;27926;48.062;7.474;2023-04-25T09:33:37;13.30;99.90
42261;DHT22;27926;48.062;7.474;2023-04-25T09:36:07;12.90;99.90
42261;DHT22;27926;48.062;7.474;2023-04-25T09:38:33;12.60;99.90
42261;DHT22;27926;48.062;7.474;2023-04-25T09:41:04;12.60;99.90
42261;DHT22;27926;48.062;7.474;2023-04-25T09:43:29;12.80;99.90
42261;DHT22;27926;48.062;7.474;2023-04-25T09:45:54;13.20;99.90
42261;DHT22;27926;48.062;7.474;2023-04-25T09:48:24;13.40;99.90
42261;DHT22;27926;48.062;7.474;2023-04-25T09:51:04;13.20;99.90
42261;DHT22;27926;48.062;7.474;2023-04-25T09:53:30;13.00;99.90
42261;DHT22;27926;48.062;7.474;2023-04-25T09:55:56;12.80;99.90
42261;DHT22;27926;48.062;7.474;2023-04-25T09:58:24;13.00;99.90
42261;DHT22;27926;48.062;7.474;2023-04-25T10:00:49;13.10;99.90
42261;DHT22;27926;48.062;7.474;2023-04-25T10:03:14;12.90;99.90
42261;DHT22;27926;48.062;7.474;2023-04-25T10:05:40;13.40;99.90
42261;DHT22;27926;48.062;7.474;2023-04-25T10:08:05;13.80;99.90
42261;DHT22;27926;48.062;7.474;2023-04-25T10:10:32;13.70;99.90
42261;DHT22;27926;48.062;7.474;2023-04-25T10:13:00;13.30;99.90
42261;DHT22;27926;48.062;7.474;2023-04-25T10:15:25;13.00;99.90
42261;DHT22;27926;48.062;7.474;2023-04-25T10:17:50;12.90;99.90
42261;DHT22;27926;48.062;7.474;2023-04-25T10:20:15;12.90;99.90
42261;DHT22;27926;48.062;7.474;2023-04-25T10:22:45;13.10;99.90
42261;DHT22;27926;48.062;7.474;2023-04-25T10:25:10;13.30;99.90
42261;DHT22;27926;48.062;7.474;2023-04-25T10:27:35;13.30;99.90
42261;DHT22;27926;48.062;7.474;2023-04-25T10:32:33;13.40;99.90
42261;DHT22;27926;48.062;7.474;2023-04-25T10:34:57;13.40;99.90
42261;DHT22;27926;48.062;7.474;2023-04-25T10:37:24;13.20;99.90
42261;DHT22;27926;48.062;7.474;2023-04-25T10:39:48;13.10;99.90
42261;DHT22;27926;48.062;7.474;2023-04-25T10:42:13;12.80;99.90
42261;DHT22;27926;48.062;7.474;2023-04-25T10:44:38;12.70;99.90
42261;DHT22;27926;48.062;7.474;2023-04-25T10:47:06;12.60;99.90
42261;DHT22;27926;48.062;7.474;2023-04-25T10:49:33;12.50;99.90
42261;DHT22;27926;48.062;7.474;2023-04-25T10:55:02;11.20;99.90
42261;DHT22;27926;48.062;7.474;2023-04-25T11:02:47;10.20;99.90
42261;DHT22;27926;48.062;7.474;2023-04-25T11:05:33;10.50;99.90
42261;DHT22;27926;48.062;7.474;2023-04-25T11:07:59;11.10;99.90
42261;DHT22;27926;48.062;7.474;2023-04-25T11:10:28;11.70;99.90
42261;DHT22;27926;48.062;7.474;2023-04-25T11:12:54;12.40;99.90
42261;DHT22;27926;48.062;7.474;2023-04-25T11:15:18;13.10;99.90
42261;DHT22;27926;48.062;7.474;2023-04-25T11:17:43;13.50;99.90
42261;DHT22;27926;48.062;7.474;2023-04-25T11:20:10;13.70;99.90
42261;DHT22;27926;48.062;7.474;2023-04-25T11:22:35;13.70;99.90
42261;DHT22;27926;48.062;7.474;2023-04-25T11:25:05;14.00;99.90
42261;DHT22;27926;48.062;7.474;2023-04-25T11:27:30;14.00;99.90
42261;DHT22;27926;48.062;7.474;2023-04-25T11:29:54;13.80;99.90
42261;DHT22;27926;48.062;7.474;2023-04-25T11:32:20;13.90;99.90
42261;DHT22;27926;48.062;7.474;2023-04-25T11:34:44;13.70;99.90
42261;DHT22;27926;48.062;7.474;2023-04-25T11:37:12;13.60;99.90
42261;DHT22;27926;48.062;7.474;2023-04-25T11:39:37;13.20;99.90
42261;DHT22;27926;48.062;7.474;2023-04-25T11:42:04;12.90;99.90
42261;DHT22;27926;48.062;7.474;2023-04-25T11:44:28;12.70;99.90
42261;DHT22;27926;48.062;7.474;2023-04-25T11:46:55;12.80;99.90
42261;DHT22;27926;48.062;7.474;2023-04-25T11:49:19;13.10;99.90
42261;DHT22;27926;48.062;7.474;2023-04-25T11:51:47;13.10;99.90
42261;DHT22;27926;48.062;7.474;2023-04-25T11:54:12;12.70;99.90
42261;DHT22;27926;48.062;7.474;2023-04-25T11:56:37;12.50;99.90
42261;DHT22;27926;48.062;7.474;2023-04-25T11:59:03;12.60;99.90
42261;DHT22;27926;48.062;7.474;2023-04-25T12:01:33;12.80;99.90
42261;DHT22;27926;48.062;7.474;2023-04-25T12:04:09;12.90;99.90
42261;DHT22;27926;48.062;7.474;2023-04-25T12:06:37;12.90;99.90
42261;DHT22;27926;48.062;7.474;2023-04-25T12:09:04;13.10;99.90
42261;DHT22;27926;48.062;7.474;2023-04-25T12:11:31;13.20;99.90
42261;DHT22;27926;48.062;7.474;2023-04-25T12:14:04;13.60;99.90
42261;DHT22;27926;48.062;7.474;2023-04-25T12:16:29;13.80;99.90
42261;DHT22;27926;48.062;7.474;2023-04-25T12:18:55;13.80;99.90
42261;DHT22;27926;48.062;7.474;2023-04-25T12:21:21;13.90;99.90
42261;DHT22;27926;48.062;7.474;2023-04-25T12:23:46;14.10;99.90
42261;DHT22;27926;48.062;7.474;2023-04-25T12:26:10;14.10;99.90
42261;DHT22;27926;48.062;7.474;2023-04-25T12:28:35;13.90;99.90
42261;DHT22;27926;48.062;7.474;2023-04-25T12:31:04;14.00;99.90
42261;DHT22;27926;48.062;7.474;2023-04-25T12:33:31;14.00;99.90
42261;DHT22;27926;48.062;7.474;2023-04-25T12:35:56;14.10;99.90
42261;DHT22;27926;48.062;7.474;2023-04-25T12:38:22;14.00;99.60
42261;DHT22;27926;48.062;7.474;2023-04-25T12:40:47;13.90;98.20
42261;DHT22;27926;48.062;7.474;2023-04-25T12:43:11;14.10;99.30
42261;DHT22;27926;48.062;7.474;2023-04-25T12:45:36;14.50;97.30
42261;DHT22;27926;48.062;7.474;2023-04-25T12:48:01;14.50;97.30
42261;DHT22;27926;48.062;7.474;2023-04-25T12:50:26;14.50;96.60
42261;DHT22;27926;48.062;7.474;2023-04-25T12:52:50;14.60;96.30
42261;DHT22;27926;48.062;7.474;2023-04-25T12:55:15;14.50;97.30
42261;DHT22;27926;48.062;7.474;2023-04-25T12:57:40;14.40;96.90
42261;DHT22;27926;48.062;7.474;2023-04-25T13:00:05;14.40;98.60
42261;DHT22;27926;48.062;7.474;2023-04-25T13:02:33;14.40;98.40
42261;DHT22;27926;48.062;7.474;2023-04-25T13:04:57;14.60;96.80
42261;DHT22;27926;48.062;7.474;2023-04-25T13:07:22;14.50;95.10
42261;DHT22;27926;48.062;7.474;2023-04-25T13:09:49;14.60;96.90
42261;DHT22;27926;48.062;7.474;2023-04-25T13:12:14;14.90;97.70
42261;DHT22;27926;48.062;7.474;2023-04-25T13:14:39;15.20;96.00
42261;DHT22;27926;48.062;7.474;2023-04-25T13:17:04;15.20;96.30
42261;DHT22;27926;48.062;7.474;2023-04-25T13:19:29;15.10;97.80
42261;DHT22;27926;48.062;7.474;2023-04-25T13:21:53;15.40;97.50
42261;DHT22;27926;48.062;7.474;2023-04-25T13:24:18;15.40;96.00
42261;DHT22;27926;48.062;7.474;2023-04-25T13:26:43;15.40;95.00
42261;DHT22;27926;48.062;7.474;2023-04-25T13:29:07;15.10;94.20
42261;DHT22;27926;48.062;7.474;2023-04-25T13:31:32;14.90;95.10
42261;DHT22;27926;48.062;7.474;2023-04-25T13:33:57;14.70;95.10
42261;DHT22;27926;48.062;7.474;2023-04-25T13:36:21;14.60;94.60
42261;DHT22;27926;48.062;7.474;2023-04-25T13:38:46;14.70;94.70
42261;DHT22;27926;48.062;7.474;2023-04-25T13:41:12;14.60;94.80
42261;DHT22;27926;48.062;7.474;2023-04-25T13:43:41;14.60;96.40
42261;DHT22;27926;48.062;7.474;2023-04-25T13:46:06;14.20;97.60
42261;DHT22;27926;48.062;7.474;2023-04-25T13:48:31;14.10;98.30
42261;DHT22;27926;48.062;7.474;2023-04-25T13:50:55;13.90;97.60
42261;DHT22;27926;48.062;7.474;2023-04-25T13:53:20;14.00;99.20
42261;DHT22;27926;48.062;7.474;2023-04-25T13:55:45;13.90;99.90
42261;DHT22;27926;48.062;7.474;2023-04-25T13:58:10;13.80;99.90
42261;DHT22;27926;48.062;7.474;2023-04-25T14:00:36;13.60;99.90
42261;DHT22;27926;48.062;7.474;2023-04-25T14:03:02;13.60;99.90
42261;DHT22;27926;48.062;7.474;2023-04-25T14:05:29;13.60;99.90
42261;DHT22;27926;48.062;7.474;2023-04-25T14:07:54;13.60;99.90
42261;DHT22;27926;48.062;7.474;2023-04-25T14:10:19;13.50;99.90
42261;DHT22;27926;48.062;7.474;2023-04-25T14:12:44;13.30;99.90
42261;DHT22;27926;48.062;7.474;2023-04-25T14:15:09;13.20;99.90
42261;DHT22;27926;48.062;7.474;2023-04-25T14:17:33;12.90;99.90
42261;DHT22;27926;48.062;7.474;2023-04-25T14:19:58;12.30;99.90
42261;DHT22;27926;48.062;7.474;2023-04-25T14:22:23;11.80;99.90
42261;DHT22;27926;48.062;7.474;2023-04-25T14:24:47;11.20;99.90
42261;DHT22;27926;48.062;7.474;2023-04-25T14:27:12;10.60;99.90
42261;DHT22;27926;48.062;7.474;2023-04-25T14:29:36;10.40;99.90
42261;DHT22;27926;48.062;7.474;2023-04-25T14:32:01;10.30;99.90
42261;DHT22;27926;48.062;7.474;2023-04-25T14:34:26;10.70;99.90
42261;DHT22;27926;48.062;7.474;2023-04-25T14:36:51;11.00;99.90
42261;DHT22;27926;48.062;7.474;2023-04-25T14:39:16;10.80;99.90
42261;DHT22;27926;48.062;7.474;2023-04-25T14:41:41;10.70;99.90
42261;DHT22;27926;48.062;7.474;2023-04-25T14:44:06;10.70;99.90
42261;DHT22;27926;48.062;7.474;2023-04-25T14:46:30;10.80;99.90
42261;DHT22;27926;48.062;7.474;2023-04-25T14:48:55;10.70;99.90
42261;DHT22;27926;48.062;7.474;2023-04-25T14:51:20;10.60;99.90
42261;DHT22;27926;48.062;7.474;2023-04-25T14:53:45;10.60;99.90
42261;DHT22;27926;48.062;7.474;2023-04-25T14:56:09;10.80;99.90
42261;DHT22;27926;48.062;7.474;2023-04-25T14:58:34;10.90;99.90
42261;DHT22;27926;48.062;7.474;2023-04-25T15:00:59;11.10;99.90
42261;DHT22;27926;48.062;7.474;2023-04-25T15:03:24;11.00;99.90
42261;DHT22;27926;48.062;7.474;2023-04-25T15:05:49;11.00;99.90
42261;DHT22;27926;48.062;7.474;2023-04-25T15:08:13;11.30;99.90
42261;DHT22;27926;48.062;7.474;2023-04-25T15:10:38;11.40;99.90
42261;DHT22;27926;48.062;7.474;2023-04-25T15:13:03;11.20;99.90
42261;DHT22;27926;48.062;7.474;2023-04-25T15:15:28;11.20;99.90
42261;DHT22;27926;48.062;7.474;2023-04-25T15:17:52;11.10;99.90
42261;DHT22;27926;48.062;7.474;2023-04-25T15:20:20;10.90;99.90
42261;DHT22;27926;48.062;7.474;2023-04-25T15:22:45;10.80;99.90
42261;DHT22;27926;48.062;7.474;2023-04-25T15:25:10;10.70;99.90
42261;DHT22;27926;48.062;7.474;2023-04-25T15:27:35;10.70;99.90
42261;DHT22;27926;48.062;7.474;2023-04-25T15:30:09;10.80;99.90
42261;DHT22;27926;48.062;7.474;2023-04-25T15:32:35;11.00;99.90
42261;DHT22;27926;48.062;7.474;2023-04-25T15:35:03;10.80;99.90